Schrunz, Liechtenstein
Current Conditions -  °F | °C
As of 5:50 AM on Thursday 23 Oct 2014 (Local Time) from LSZR Reporting Station
Broken Clouds Broken Clouds  
Wind Chill:   Ceiling: 2900
Heat Index:   Visibility: 6mi
Dew Point:   Wind: 13mph
Humidity: 81%   Direction: 260°W
Pressure: 30.21"   Gusts: NA
Location:  47.08°N, 9.93°E
Report Text: LSZR 230350Z AUTO 26011KT 210V300 9999 BKN029 SCT034 BKN041 07/04 Q1023
Loading
Personal Weather Stations






























Interactive Weather Map
Tropical Storm Tracking
New forecast layout! Learn more

10-Day Weather Forecast

Advertisements
Track Severe Weather on mobile